EA4PS Weather Reports


Display with metric or nautical units.
time (UTC)temp
F
wind
direction
speed
MPH
gust
MPH
rain 1hr
in
rain 24hr
in
rain mn
in
humidity
%
barometer
mb
20210923090438 62 67 0.0 4.0 0.00 0.02 0.00 76 1017.3
20210923084438 61 71 0.0 3.0 0.00 0.02 0.00 79 1017.4
20210923083438 60 68 0.0 0.0 0.00 0.02 0.00 78 1017.3
20210923082438 60 67 0.0 6.0 0.00 0.02 0.00 79 1017.2
20210923081438 60 71 0.0 4.0 0.00 0.02 0.00 80 1017.1
20210923080438 59 72 4.0 4.0 0.00 0.02 0.00 79 1017.0
20210923075438 59 69 0.0 7.0 0.00 0.02 0.00 80 1016.9
20210923074438 59 78 0.0 4.0 0.00 0.02 0.00 80 1016.8
20210923073438 59 71 0.0 4.0 0.00 0.02 0.00 80 1017.0
20210923072438 59 64 1.0 4.0 0.00 0.02 0.00 80 1017.0
20210923071438 59 64 0.0 4.0 0.00 0.02 0.00 81 1016.9
20210923065438 58 62 0.0 4.0 0.00 0.02 0.00 81 1016.9
20210923063438 58 69 0.0 3.0 0.00 0.02 0.00 80 1017.0
20210923061438 59 69 0.0 3.0 0.00 0.02 0.00 80 1016.8
20210923060438 59 68 0.0 0.0 0.00 0.02 0.00 80 1016.7
20210923055438 59 68 0.0 4.0 0.00 0.02 0.00 80 1016.8
20210923054438 59 67 0.0 4.0 0.00 0.02 0.00 80 1016.9
20210923053438 59 66 0.0 3.0 0.00 0.02 0.00 80 1016.9
20210923051438 59 72 0.0 4.0 0.00 0.02 0.00 80 1016.7
20210923043438 59 76 0.0 2.0 0.00 0.02 0.00 80 1016.6
20210923042438 59 78 0.0 6.0 0.00 0.02 0.00 80 1016.4
20210923034438 59 92 0.0 4.0 0.00 0.02 0.00 81 1016.3
20210923033438 58 77 2.0 2.0 0.00 0.02 0.00 81 1016.4
20210923030438 59 92 0.0 3.0 0.00 0.02 0.00 80 1016.4
20210923025438 59 75 1.0 4.0 0.00 0.02 0.00 80 1016.4
20210923024438 59 84 0.0 4.0 0.00 0.02 0.00 80 1016.5
20210923022438 58 101 0.0 3.0 0.00 0.02 0.00 82 1016.6
20210923015438 56 63 0.0 3.0 0.00 0.02 0.00 86 1016.8
20210923014438 56 63 0.0 3.0 0.00 0.02 0.00 87 1017.0
20210923013437 56 63 0.0 0.0 0.00 0.02 0.00 86 1017.0
20210923012437 56 63 0.0 0.0 0.00 0.02 0.00 86 1016.9
20210923011438 57 63 0.0 0.0 0.00 0.02 0.00 86 1017.0
20210923010437 57 63 0.0 0.0 0.00 0.02 0.00 86 1017.0
20210923003341 58 63 0.0 0.0 0.00 0.02 0.00 84 1017.1
20210923002341 58 63 0.0 0.0 0.00 0.02 0.00 84 1017.2
20210923000342 58 63 0.0 0.0 0.00 0.02 0.00 83 1017.3
20210922234341 59 63 0.0 2.0 0.00 0.02 0.00 82 1017.5
20210922224341 60 91 0.0 4.0 0.00 0.02 0.00 80 1017.5
20210922223341 60 74 0.0 3.0 0.00 0.02 0.00 79 1017.4
20210922221341 61 73 0.0 3.0 0.00 0.02 0.00 78 1017.3
20210922215341 61 75 0.0 3.0 0.00 0.02 0.02 76 1017.4
20210922214342 61 71 0.0 3.0 0.00 0.02 0.02 76 1017.4
20210922213341 62 76 0.0 0.0 0.00 0.02 0.02 75 1017.3
20210922212341 62 73 0.0 7.0 0.00 0.02 0.02 73 1017.1
20210922205341 62 284 0.0 1.0 0.00 0.02 0.02 70 1017.1
20210922202341 64 169 0.0 1.0 0.00 0.02 0.02 66 1016.8
20210922195341 66 133 0.0 2.0 0.00 0.02 0.02 64 1016.3
20210922185341 66 133 0.0 0.0 0.00 0.02 0.02 59 1015.2
20210922184341 67 133 0.0 0.0 0.00 0.02 0.02 59 1015.1
20210922183341 67 133 0.0 0.0 0.00 0.02 0.02 58 1015.2
20210922181341 68 133 0.0 0.0 0.00 0.02 0.02 57 1015.2
20210922180340 68 133 0.0 0.0 0.00 0.02 0.02 57 1015.1
20210922175341 68 133 0.0 0.0 0.00 0.02 0.02 57 1015.0
20210922173340 68 133 0.0 0.0 0.00 0.02 0.02 56 1015.0
20210922172341 68 133 0.0 0.0 0.00 0.02 0.02 56 1015.0
20210922170340 69 133 0.0 0.0 0.00 0.02 0.02 56 1015.1
20210922164340 69 136 0.0 0.0 0.01 0.02 0.02 56 1015.1
20210922163405 69 134 0.0 0.0 0.01 0.02 0.02 55 1015.1
20210922161340 69 142 0.0 2.0 0.01 0.02 0.02 55 1015.1
20210922160340 69 154 0.0 0.0 0.01 0.02 0.02 56 1015.1
20210922155340 69 156 0.0 5.0 0.01 0.02 0.02 55 1015.3
20210922154340 69 165 0.0 5.0 0.00 0.01 0.01 56 1015.4
20210922153340 69 113 0.0 0.0 0.00 0.01 0.01 57 1015.7
20210922151340 68 155 0.0 5.0 0.00 0.01 0.01 58 1015.9
20210922145340 68 84 0.0 5.0 0.00 0.01 0.01 58 1016.2
20210922143340 67 90 0.0 0.0 0.00 0.01 0.01 60 1016.3
20210922141340 66 58 0.0 1.0 0.00 0.01 0.01 60 1016.7
20210922140340 66 58 0.0 0.0 0.00 0.01 0.01 58 1016.9
20210922135340 66 58 0.0 3.0 0.00 0.01 0.01 57 1016.9
20210922132340 65 64 0.0 3.0 0.00 0.01 0.01 62 1017.3
20210922131340 63 69 0.0 3.0 0.00 0.01 0.01 65 1017.5
20210922130340 63 67 0.0 3.0 0.00 0.01 0.01 67 1017.5
20210922125340 62 65 0.0 3.0 0.00 0.01 0.01 67 1017.6
20210922122341 61 71 0.0 6.0 0.00 0.01 0.01 71 1018.1
20210922120340 60 71 0.0 1.0 0.00 0.01 0.01 73 1018.3